PWSweather.com
Personal Weather Stations
Station Observations
DW1039
Liberty & Fairfield Townships, Hamilton, OH 45011

Liberty & Fairfield TownshipsHamilton, OH 45011

Lat: 39.3933, Lon: -84.477

Elevation: 780

Station Type: Davis Vantage Pro2 (Daytime Fan Aspirated)

http://www.lfweathercenter.com/

High Low Average
Temperature 59.6°F15.3°C 47.8°F8.8°C 52.5°F11.4°C
Dew Point 45.6°F7.6°C 27.5°F-2.5°C 34.1°F1.2°C
Winds 17.0 mph 27.4 kmh Calm Calm 8.0 mph SSW12.9 kmh SSW
Wind Gusts 26.0 mph41.8 kmh 9.0 mph14.5 kmh 16.0 mph25.7 kmh
Humidity 72% 38% 50%
Pressure 30.16 in1021.3 mb 30.03 in1016.9 mb -
Precipitation 0.00 in0.0 mm - -
Hour Temp Dew Point Humidity Winds Wind Gusts Pressure Precip Precip Rate Daily Precip Total
12:00 AM 49.4°F9.7°C 28.4°F-2.0°C 44% 4.0 mph SSW6.4 kmh SSW 10.0 mph16.1 kmh 30.15 in1021.0 mb 0.00 in0.0 mm 0.00 in/hr0.0 mm/hr 0.00 in0.0 mm
12:10 AM 49.4°F9.7°C 28.4°F-2.0°C 44% 5.0 mph SSW8.0 kmh SSW 11.0 mph17.7 kmh 30.15 in1021.0 mb 0.00 in0.0 mm 0.00 in/hr0.0 mm/hr 0.00 in0.0 mm
12:20 AM 50.2°F10.1°C 28.6°F-1.9°C 43% 3.0 mph SW4.8 kmh SW 13.0 mph20.9 kmh 30.15 in1021.0 mb 0.00 in0.0 mm 0.00 in/hr0.0 mm/hr 0.00 in0.0 mm
12:30 AM 49.6°F9.8°C 28.6°F-1.9°C 44% 6.0 mph S9.7 kmh S 11.0 mph17.7 kmh 30.16 in1021.3 mb 0.00 in0.0 mm 0.00 in/hr0.0 mm/hr 0.00 in0.0 mm
12:40 AM 50.1°F10.1°C 28.5°F-1.9°C 43% 9.0 mph SSW14.5 kmh SSW 13.0 mph20.9 kmh 30.15 in1021.0 mb 0.00 in0.0 mm 0.00 in/hr0.0 mm/hr 0.00 in0.0 mm
12:50 AM 50.0°F10.0°C 28.4°F-2.0°C 43% 4.0 mph S6.4 kmh S 13.0 mph20.9 kmh 30.15 in1021.0 mb 0.00 in0.0 mm 0.00 in/hr0.0 mm/hr 0.00 in0.0 mm
01:01 AM 49.9°F9.9°C 28.3°F-2.1°C 43% 2.0 mph SSW3.2 kmh SSW 14.0 mph22.5 kmh 30.15 in1021.0 mb 0.00 in0.0 mm 0.00 in/hr0.0 mm/hr 0.00 in0.0 mm
01:10 AM 49.8°F9.9°C 28.2°F-2.1°C 43% 4.0 mph S6.4 kmh S 13.0 mph20.9 kmh 30.15 in1021.0 mb 0.00 in0.0 mm 0.00 in/hr0.0 mm/hr 0.00 in0.0 mm
01:20 AM 49.5°F9.7°C 28.0°F-2.2°C 43% 11.0 mph SSW17.7 kmh SSW 12.0 mph19.3 kmh 30.15 in1021.0 mb 0.00 in0.0 mm 0.00 in/hr0.0 mm/hr 0.00 in0.0 mm
01:30 AM 49.2°F9.6°C 28.2°F-2.1°C 44% 3.0 mph SSW4.8 kmh SSW 10.0 mph16.1 kmh 30.15 in1021.0 mb 0.00 in0.0 mm 0.00 in/hr0.0 mm/hr 0.00 in0.0 mm
01:40 AM 48.4°F9.1°C 28.1°F-2.2°C 45% 4.0 mph S6.4 kmh S 9.0 mph14.5 kmh 30.14 in1020.7 mb 0.00 in0.0 mm 0.00 in/hr0.0 mm/hr 0.00 in0.0 mm
01:50 AM 47.9°F8.8°C 28.1°F-2.2°C 46% 7.0 mph S11.3 kmh S 10.0 mph16.1 kmh 30.14 in1020.7 mb 0.00 in0.0 mm 0.00 in/hr0.0 mm/hr 0.00 in0.0 mm
02:10 AM 48.3°F9.1°C 28.0°F-2.2°C 45% 5.0 mph SSW8.0 kmh SSW 9.0 mph14.5 kmh 30.14 in1020.7 mb 0.00 in0.0 mm 0.00 in/hr0.0 mm/hr 0.00 in0.0 mm
02:20 AM 48.1°F8.9°C 28.3°F-2.1°C 46% 4.0 mph S6.4 kmh S 11.0 mph17.7 kmh 30.14 in1020.7 mb 0.00 in0.0 mm 0.00 in/hr0.0 mm/hr 0.00 in0.0 mm
02:40 AM 48.7°F9.3°C 28.3°F-2.1°C 45% Calm Calm 11.0 mph17.7 kmh 30.14 in1020.7 mb 0.00 in0.0 mm 0.00 in/hr0.0 mm/hr 0.00 in0.0 mm
02:50 AM 48.7°F9.3°C 28.3°F-2.1°C 45% 4.0 mph SW6.4 kmh SW 10.0 mph16.1 kmh 30.14 in1020.7 mb 0.00 in0.0 mm 0.00 in/hr0.0 mm/hr 0.00 in0.0 mm
03:01 AM 49.0°F9.4°C 28.1°F-2.2°C 44% 5.0 mph SSW8.0 kmh SSW 10.0 mph16.1 kmh 30.14 in1020.7 mb 0.00 in0.0 mm 0.00 in/hr0.0 mm/hr 0.00 in0.0 mm
03:10 AM 48.7°F9.3°C 28.3°F-2.1°C 45% 10.0 mph SSW16.1 kmh SSW 10.0 mph16.1 kmh 30.14 in1020.7 mb 0.00 in0.0 mm 0.00 in/hr0.0 mm/hr 0.00 in0.0 mm
03:20 AM 49.4°F9.7°C 27.9°F-2.3°C 43% 3.0 mph S4.8 kmh S 16.0 mph25.7 kmh 30.14 in1020.7 mb 0.00 in0.0 mm 0.00 in/hr0.0 mm/hr 0.00 in0.0 mm
03:30 AM 49.2°F9.6°C 28.2°F-2.1°C 44% 7.0 mph SW11.3 kmh SW 15.0 mph24.1 kmh 30.14 in1020.7 mb 0.00 in0.0 mm 0.00 in/hr0.0 mm/hr 0.00 in0.0 mm
03:40 AM 49.0°F9.4°C 28.1°F-2.2°C 44% 3.0 mph S4.8 kmh S 13.0 mph20.9 kmh 30.14 in1020.7 mb 0.00 in0.0 mm 0.00 in/hr0.0 mm/hr 0.00 in0.0 mm
03:50 AM 49.0°F9.4°C 28.6°F-1.9°C 45% 10.0 mph SW16.1 kmh SW 11.0 mph17.7 kmh 30.14 in1020.7 mb 0.00 in0.0 mm 0.00 in/hr0.0 mm/hr 0.00 in0.0 mm
04:20 AM 48.7°F9.3°C 28.3°F-2.1°C 45% 6.0 mph SSW9.7 kmh SSW 10.0 mph16.1 kmh 30.14 in1020.7 mb 0.00 in0.0 mm 0.00 in/hr0.0 mm/hr 0.00 in0.0 mm
04:30 AM 48.8°F9.3°C 28.4°F-2.0°C 45% 5.0 mph SSW8.0 kmh SSW 12.0 mph19.3 kmh 30.14 in1020.7 mb 0.00 in0.0 mm 0.00 in/hr0.0 mm/hr 0.00 in0.0 mm
04:50 AM 48.6°F9.2°C 28.2°F-2.1°C 45% 1.0 mph SSW1.6 kmh SSW 11.0 mph17.7 kmh 30.14 in1020.7 mb 0.00 in0.0 mm 0.00 in/hr0.0 mm/hr 0.00 in0.0 mm
05:00 AM 48.7°F9.3°C 28.3°F-2.1°C 45% 7.0 mph S11.3 kmh S 16.0 mph25.7 kmh 30.14 in1020.7 mb 0.00 in0.0 mm 0.00 in/hr0.0 mm/hr 0.00 in0.0 mm
05:10 AM 48.8°F9.3°C 28.4°F-2.0°C 45% 9.0 mph SSW14.5 kmh SSW 12.0 mph19.3 kmh 30.14 in1020.7 mb 0.00 in0.0 mm 0.00 in/hr0.0 mm/hr 0.00 in0.0 mm
05:20 AM 48.7°F9.3°C 28.3°F-2.1°C 45% 4.0 mph S6.4 kmh S 13.0 mph20.9 kmh 30.14 in1020.7 mb 0.00 in0.0 mm 0.00 in/hr0.0 mm/hr 0.00 in0.0 mm
05:30 AM 48.9°F9.4°C 28.5°F-1.9°C 45% 10.0 mph SW16.1 kmh SW 14.0 mph22.5 kmh 30.14 in1020.7 mb 0.00 in0.0 mm 0.00 in/hr0.0 mm/hr 0.00 in0.0 mm
05:40 AM 49.0°F9.4°C 28.1°F-2.2°C 44% 3.0 mph SSW4.8 kmh SSW 13.0 mph20.9 kmh 30.14 in1020.7 mb 0.00 in0.0 mm 0.00 in/hr0.0 mm/hr 0.00 in0.0 mm
05:50 AM 49.1°F9.5°C 28.2°F-2.1°C 44% 5.0 mph S8.0 kmh S 15.0 mph24.1 kmh 30.14 in1020.7 mb 0.00 in0.0 mm 0.00 in/hr0.0 mm/hr 0.00 in0.0 mm
06:00 AM 48.8°F9.3°C 28.4°F-2.0°C 45% 7.0 mph SSW11.3 kmh SSW 12.0 mph19.3 kmh 30.14 in1020.7 mb 0.00 in0.0 mm 0.00 in/hr0.0 mm/hr 0.00 in0.0 mm
06:10 AM 48.6°F9.2°C 28.2°F-2.1°C 45% 5.0 mph SW8.0 kmh SW 14.0 mph22.5 kmh 30.14 in1020.7 mb 0.00 in0.0 mm 0.00 in/hr0.0 mm/hr 0.00 in0.0 mm
06:20 AM 48.4°F9.1°C 28.6°F-1.9°C 46% 2.0 mph SSW3.2 kmh SSW 13.0 mph20.9 kmh 30.14 in1020.7 mb 0.00 in0.0 mm 0.00 in/hr0.0 mm/hr 0.00 in0.0 mm
06:30 AM 48.4°F9.1°C 28.1°F-2.2°C 45% 11.0 mph SSW17.7 kmh SSW 11.0 mph17.7 kmh 30.14 in1020.7 mb 0.00 in0.0 mm 0.00 in/hr0.0 mm/hr 0.00 in0.0 mm
07:10 AM 48.1°F8.9°C 28.3°F-2.1°C 46% 4.0 mph S6.4 kmh S 10.0 mph16.1 kmh 30.14 in1020.7 mb 0.00 in0.0 mm 0.00 in/hr0.0 mm/hr 0.00 in0.0 mm
07:20 AM 48.0°F8.9°C 28.2°F-2.1°C 46% 10.0 mph SW16.1 kmh SW 12.0 mph19.3 kmh 30.15 in1021.0 mb 0.00 in0.0 mm 0.00 in/hr0.0 mm/hr 0.00 in0.0 mm
08:10 AM 48.4°F9.1°C 28.1°F-2.2°C 45% 12.0 mph SSW19.3 kmh SSW 16.0 mph25.7 kmh 30.15 in1021.0 mb 0.00 in0.0 mm 0.00 in/hr0.0 mm/hr 0.00 in0.0 mm
08:20 AM 48.1°F8.9°C 27.8°F-2.3°C 45% 4.0 mph S6.4 kmh S 14.0 mph22.5 kmh 30.15 in1021.0 mb 0.00 in0.0 mm 0.00 in/hr0.0 mm/hr 0.00 in0.0 mm
08:30 AM 47.9°F8.8°C 27.6°F-2.4°C 45% 4.0 mph SSW6.4 kmh SSW 16.0 mph25.7 kmh 30.15 in1021.0 mb 0.00 in0.0 mm 0.00 in/hr0.0 mm/hr 0.00 in0.0 mm
08:40 AM 47.8°F8.8°C 28.0°F-2.2°C 46% 7.0 mph SSW11.3 kmh SSW 14.0 mph22.5 kmh 30.15 in1021.0 mb 0.00 in0.0 mm 0.00 in/hr0.0 mm/hr 0.00 in0.0 mm
08:50 AM 48.0°F8.9°C 27.7°F-2.4°C 45% 5.0 mph SSW8.0 kmh SSW 14.0 mph22.5 kmh 30.15 in1021.0 mb 0.00 in0.0 mm 0.00 in/hr0.0 mm/hr 0.00 in0.0 mm
09:10 AM 48.0°F8.9°C 27.7°F-2.4°C 45% 12.0 mph SSW19.3 kmh SSW 18.0 mph29.0 kmh 30.15 in1021.0 mb 0.00 in0.0 mm 0.00 in/hr0.0 mm/hr 0.00 in0.0 mm
09:20 AM 48.1°F8.9°C 27.8°F-2.3°C 45% 5.0 mph SSW8.0 kmh SSW 11.0 mph17.7 kmh 30.15 in1021.0 mb 0.00 in0.0 mm 0.00 in/hr0.0 mm/hr 0.00 in0.0 mm
09:30 AM 48.4°F9.1°C 27.5°F-2.5°C 44% 5.0 mph SSW8.0 kmh SSW 13.0 mph20.9 kmh 30.15 in1021.0 mb 0.00 in0.0 mm 0.00 in/hr0.0 mm/hr 0.00 in0.0 mm
09:40 AM 49.0°F9.4°C 27.5°F-2.5°C 43% 12.0 mph SW19.3 kmh SW 17.0 mph27.4 kmh 30.15 in1021.0 mb 0.00 in0.0 mm 0.00 in/hr0.0 mm/hr 0.00 in0.0 mm
10:20 AM 50.6°F10.3°C 27.8°F-2.3°C 41% 10.0 mph S16.1 kmh S 16.0 mph25.7 kmh 30.16 in1021.3 mb 0.00 in0.0 mm 0.00 in/hr0.0 mm/hr 0.00 in0.0 mm
10:30 AM 50.4°F10.2°C 28.8°F-1.8°C 43% 6.0 mph S9.7 kmh S 19.0 mph30.6 kmh 30.16 in1021.3 mb 0.00 in0.0 mm 0.00 in/hr0.0 mm/hr 0.00 in0.0 mm
12:10 PM 54.8°F12.7°C 30.3°F-0.9°C 39% 9.0 mph SW14.5 kmh SW 23.0 mph37.0 kmh 30.14 in1020.7 mb 0.00 in0.0 mm 0.00 in/hr0.0 mm/hr 0.00 in0.0 mm
12:20 PM 55.6°F13.1°C 30.4°F-0.9°C 38% 12.0 mph SSW19.3 kmh SSW 22.0 mph35.4 kmh 30.13 in1020.3 mb 0.00 in0.0 mm 0.00 in/hr0.0 mm/hr 0.00 in0.0 mm
12:30 PM 54.8°F12.7°C 30.3°F-0.9°C 39% 14.0 mph SW22.5 kmh SW 22.0 mph35.4 kmh 30.13 in1020.3 mb 0.00 in0.0 mm 0.00 in/hr0.0 mm/hr 0.00 in0.0 mm
12:40 PM 54.4°F12.4°C 30.6°F-0.8°C 40% 17.0 mph SW27.4 kmh SW 20.0 mph32.2 kmh 30.12 in1020.0 mb 0.00 in0.0 mm 0.00 in/hr0.0 mm/hr 0.00 in0.0 mm
12:50 PM 56.1°F13.4°C 32.1°F0.1°C 40% 11.0 mph SW17.7 kmh SW 18.0 mph29.0 kmh 30.12 in1020.0 mb 0.00 in0.0 mm 0.00 in/hr0.0 mm/hr 0.00 in0.0 mm
01:00 PM 57.1°F13.9°C 33.0°F0.6°C 40% 11.0 mph SW17.7 kmh SW 18.0 mph29.0 kmh 30.11 in1019.6 mb 0.00 in0.0 mm 0.00 in/hr0.0 mm/hr 0.00 in0.0 mm
01:50 PM 58.6°F14.8°C 37.3°F2.9°C 45% 17.0 mph WSW27.4 kmh WSW 24.0 mph38.6 kmh 30.09 in1019.0 mb 0.00 in0.0 mm 0.00 in/hr0.0 mm/hr 0.00 in0.0 mm
02:20 PM 58.2°F14.6°C 38.1°F3.4°C 47% 5.0 mph S8.0 kmh S 18.0 mph29.0 kmh 30.08 in1018.6 mb 0.00 in0.0 mm 0.00 in/hr0.0 mm/hr 0.00 in0.0 mm
02:30 PM 58.2°F14.6°C 39.2°F4.0°C 49% 10.0 mph SW16.1 kmh SW 16.0 mph25.7 kmh 30.08 in1018.6 mb 0.00 in0.0 mm 0.00 in/hr0.0 mm/hr 0.00 in0.0 mm
02:40 PM 58.1°F14.5°C 39.6°F4.2°C 50% 12.0 mph S19.3 kmh S 16.0 mph25.7 kmh 30.07 in1018.3 mb 0.00 in0.0 mm 0.00 in/hr0.0 mm/hr 0.00 in0.0 mm
02:50 PM 58.0°F14.4°C 40.0°F4.4°C 51% 16.0 mph SW25.7 kmh SW 20.0 mph32.2 kmh 30.07 in1018.3 mb 0.00 in0.0 mm 0.00 in/hr0.0 mm/hr 0.00 in0.0 mm
03:00 PM 58.2°F14.6°C 40.2°F4.6°C 51% 12.0 mph SW19.3 kmh SW 22.0 mph35.4 kmh 30.07 in1018.3 mb 0.00 in0.0 mm 0.00 in/hr0.0 mm/hr 0.00 in0.0 mm
03:10 PM 58.2°F14.6°C 41.2°F5.1°C 53% 11.0 mph SW17.7 kmh SW 17.0 mph27.4 kmh 30.06 in1017.9 mb 0.00 in0.0 mm 0.00 in/hr0.0 mm/hr 0.00 in0.0 mm
03:20 PM 58.4°F14.7°C 40.9°F4.9°C 52% 9.0 mph SSW14.5 kmh SSW 17.0 mph27.4 kmh 30.06 in1017.9 mb 0.00 in0.0 mm 0.00 in/hr0.0 mm/hr 0.00 in0.0 mm
03:30 PM 58.8°F14.9°C 41.7°F5.4°C 53% 12.0 mph SSW19.3 kmh SSW 23.0 mph37.0 kmh 30.05 in1017.6 mb 0.00 in0.0 mm 0.00 in/hr0.0 mm/hr 0.00 in0.0 mm
03:40 PM 59.6°F15.3°C 41.5°F5.3°C 51% 13.0 mph SW20.9 kmh SW 20.0 mph32.2 kmh 30.06 in1017.9 mb 0.00 in0.0 mm 0.00 in/hr0.0 mm/hr 0.00 in0.0 mm
03:50 PM 59.0°F15.0°C 41.9°F5.5°C 53% 3.0 mph SSW4.8 kmh SSW 21.0 mph33.8 kmh 30.05 in1017.6 mb 0.00 in0.0 mm 0.00 in/hr0.0 mm/hr 0.00 in0.0 mm
04:00 PM 58.9°F14.9°C 41.8°F5.4°C 53% 14.0 mph SSW22.5 kmh SSW 21.0 mph33.8 kmh 30.05 in1017.6 mb 0.00 in0.0 mm 0.00 in/hr0.0 mm/hr 0.00 in0.0 mm
04:10 PM 58.6°F14.8°C 41.5°F5.3°C 53% 13.0 mph SW20.9 kmh SW 26.0 mph41.8 kmh 30.05 in1017.6 mb 0.00 in0.0 mm 0.00 in/hr0.0 mm/hr 0.00 in0.0 mm
04:20 PM 58.5°F14.7°C 41.5°F5.3°C 53% 13.0 mph SW20.9 kmh SW 22.0 mph35.4 kmh 30.05 in1017.6 mb 0.00 in0.0 mm 0.00 in/hr0.0 mm/hr 0.00 in0.0 mm
04:30 PM 58.3°F14.6°C 41.8°F5.4°C 54% 3.0 mph SW4.8 kmh SW 14.0 mph22.5 kmh 30.04 in1017.3 mb 0.00 in0.0 mm 0.00 in/hr0.0 mm/hr 0.00 in0.0 mm
04:40 PM 58.1°F14.5°C 42.0°F5.6°C 55% 11.0 mph SW17.7 kmh SW 14.0 mph22.5 kmh 30.04 in1017.3 mb 0.00 in0.0 mm 0.00 in/hr0.0 mm/hr 0.00 in0.0 mm
04:50 PM 58.0°F14.4°C 41.5°F5.3°C 54% 17.0 mph SSW27.4 kmh SSW 25.0 mph40.2 kmh 30.05 in1017.6 mb 0.00 in0.0 mm 0.00 in/hr0.0 mm/hr 0.00 in0.0 mm
05:01 PM 57.1°F13.9°C 42.5°F5.8°C 58% 16.0 mph SW25.7 kmh SW 26.0 mph41.8 kmh 30.05 in1017.6 mb 0.00 in0.0 mm 0.00 in/hr0.0 mm/hr 0.00 in0.0 mm
05:10 PM 56.0°F13.3°C 44.0°F6.7°C 64% 9.0 mph SSW14.5 kmh SSW 26.0 mph41.8 kmh 30.06 in1017.9 mb 0.00 in0.0 mm 0.00 in/hr0.0 mm/hr 0.00 in0.0 mm
05:20 PM 55.4°F13.0°C 43.9°F6.6°C 65% 3.0 mph WSW4.8 kmh WSW 18.0 mph29.0 kmh 30.06 in1017.9 mb 0.00 in0.0 mm 0.00 in/hr0.0 mm/hr 0.00 in0.0 mm
05:30 PM 55.4°F13.0°C 43.9°F6.6°C 65% 7.0 mph SW11.3 kmh SW 22.0 mph35.4 kmh 30.05 in1017.6 mb 0.00 in0.0 mm 0.00 in/hr0.0 mm/hr 0.00 in0.0 mm
05:40 PM 55.1°F12.8°C 44.0°F6.7°C 66% 10.0 mph SW16.1 kmh SW 18.0 mph29.0 kmh 30.05 in1017.6 mb 0.00 in0.0 mm 0.00 in/hr0.0 mm/hr 0.00 in0.0 mm
05:50 PM 54.8°F12.7°C 45.2°F7.3°C 70% 14.0 mph SW22.5 kmh SW 25.0 mph40.2 kmh 30.05 in1017.6 mb 0.00 in0.0 mm 0.00 in/hr0.0 mm/hr 0.00 in0.0 mm
06:00 PM 54.4°F12.4°C 45.6°F7.6°C 72% 6.0 mph SW9.7 kmh SW 16.0 mph25.7 kmh 30.05 in1017.6 mb 0.00 in0.0 mm 0.00 in/hr0.0 mm/hr 0.00 in0.0 mm
06:10 PM 54.3°F12.4°C 45.5°F7.5°C 72% 7.0 mph SSW11.3 kmh SSW 16.0 mph25.7 kmh 30.05 in1017.6 mb 0.00 in0.0 mm 0.00 in/hr0.0 mm/hr 0.00 in0.0 mm
06:20 PM 54.0°F12.2°C 45.2°F7.3°C 72% Calm Calm 15.0 mph24.1 kmh 30.04 in1017.3 mb 0.00 in0.0 mm 0.00 in/hr0.0 mm/hr 0.00 in0.0 mm
06:30 PM 54.0°F12.2°C 44.8°F7.1°C 71% 10.0 mph SW16.1 kmh SW 12.0 mph19.3 kmh 30.04 in1017.3 mb 0.00 in0.0 mm 0.00 in/hr0.0 mm/hr 0.00 in0.0 mm
06:40 PM 54.3°F12.4°C 44.4°F6.9°C 69% 12.0 mph SW19.3 kmh SW 17.0 mph27.4 kmh 30.04 in1017.3 mb 0.00 in0.0 mm 0.00 in/hr0.0 mm/hr 0.00 in0.0 mm
06:50 PM 54.7°F12.6°C 44.0°F6.7°C 67% 5.0 mph SSW8.0 kmh SSW 16.0 mph25.7 kmh 30.04 in1017.3 mb 0.00 in0.0 mm 0.00 in/hr0.0 mm/hr 0.00 in0.0 mm
07:01 PM 54.9°F12.7°C 43.4°F6.3°C 65% 11.0 mph SSW17.7 kmh SSW 11.0 mph17.7 kmh 30.03 in1016.9 mb 0.00 in0.0 mm 0.00 in/hr0.0 mm/hr 0.00 in0.0 mm
07:10 PM 55.1°F12.8°C 43.2°F6.2°C 64% 10.0 mph S16.1 kmh S 14.0 mph22.5 kmh 30.04 in1017.3 mb 0.00 in0.0 mm 0.00 in/hr0.0 mm/hr 0.00 in0.0 mm
07:20 PM 55.4°F13.0°C 42.6°F5.9°C 62% 6.0 mph S9.7 kmh S 16.0 mph25.7 kmh 30.04 in1017.3 mb 0.00 in0.0 mm 0.00 in/hr0.0 mm/hr 0.00 in0.0 mm
07:30 PM 55.5°F13.1°C 42.3°F5.7°C 61% 7.0 mph S11.3 kmh S 22.0 mph35.4 kmh 30.03 in1016.9 mb 0.00 in0.0 mm 0.00 in/hr0.0 mm/hr 0.00 in0.0 mm
07:40 PM 55.0°F12.8°C 43.1°F6.2°C 64% 9.0 mph SSW14.5 kmh SSW 19.0 mph30.6 kmh 30.04 in1017.3 mb 0.00 in0.0 mm 0.00 in/hr0.0 mm/hr 0.00 in0.0 mm
07:50 PM 54.2°F12.3°C 43.5°F6.4°C 67% 13.0 mph S20.9 kmh S 19.0 mph30.6 kmh 30.04 in1017.3 mb 0.00 in0.0 mm 0.00 in/hr0.0 mm/hr 0.00 in0.0 mm